sensor_id;sensor_type;location;lat;lon;timestamp;P1;durP1;ratioP1;P2;durP2;ratioP2
69392;SDS011;56582;44.624;20.378;2023-09-30T00:00:25;14.52;;;6.18;;
69392;SDS011;56582;44.624;20.378;2023-09-30T00:02:51;9.87;;;6.10;;
69392;SDS011;56582;44.624;20.378;2023-09-30T00:05:17;9.50;;;5.85;;
69392;SDS011;56582;44.624;20.378;2023-09-30T00:07:44;8.25;;;5.50;;
69392;SDS011;56582;44.624;20.378;2023-09-30T00:10:10;9.83;;;5.70;;
69392;SDS011;56582;44.624;20.378;2023-09-30T00:12:36;14.40;;;6.25;;
69392;SDS011;56582;44.624;20.378;2023-09-30T00:15:01;12.80;;;6.00;;
69392;SDS011;56582;44.624;20.378;2023-09-30T00:17:29;11.50;;;6.22;;
69392;SDS011;56582;44.624;20.378;2023-09-30T00:19:54;10.07;;;6.13;;
69392;SDS011;56582;44.624;20.378;2023-09-30T00:22:20;9.77;;;6.97;;
69392;SDS011;56582;44.624;20.378;2023-09-30T00:24:45;11.73;;;6.70;;
69392;SDS011;56582;44.624;20.378;2023-09-30T00:27:12;14.15;;;6.80;;
69392;SDS011;56582;44.624;20.378;2023-09-30T00:29:37;10.33;;;6.77;;
69392;SDS011;56582;44.624;20.378;2023-09-30T00:32:03;16.50;;;7.93;;
69392;SDS011;56582;44.624;20.378;2023-09-30T00:34:31;13.60;;;8.10;;
69392;SDS011;56582;44.624;20.378;2023-09-30T00:36:58;13.57;;;7.35;;
69392;SDS011;56582;44.624;20.378;2023-09-30T00:39:24;10.87;;;7.00;;
69392;SDS011;56582;44.624;20.378;2023-09-30T00:41:52;10.63;;;6.57;;
69392;SDS011;56582;44.624;20.378;2023-09-30T00:44:17;12.35;;;6.82;;
69392;SDS011;56582;44.624;20.378;2023-09-30T00:46:43;13.83;;;8.00;;
69392;SDS011;56582;44.624;20.378;2023-09-30T00:49:08;12.67;;;6.50;;
69392;SDS011;56582;44.624;20.378;2023-09-30T00:51:35;11.50;;;6.95;;
69392;SDS011;56582;44.624;20.378;2023-09-30T00:54:01;11.98;;;7.00;;
69392;SDS011;56582;44.624;20.378;2023-09-30T00:56:27;16.52;;;6.93;;
69392;SDS011;56582;44.624;20.378;2023-09-30T00:58:55;11.07;;;6.40;;
69392;SDS011;56582;44.624;20.378;2023-09-30T01:01:20;14.93;;;6.40;;
69392;SDS011;56582;44.624;20.378;2023-09-30T01:03:46;14.57;;;7.77;;
69392;SDS011;56582;44.624;20.378;2023-09-30T01:06:12;9.05;;;5.90;;
69392;SDS011;56582;44.624;20.378;2023-09-30T01:08:38;14.07;;;7.07;;
69392;SDS011;56582;44.624;20.378;2023-09-30T01:11:04;15.63;;;7.35;;
69392;SDS011;56582;44.624;20.378;2023-09-30T01:13:34;10.10;;;6.77;;
69392;SDS011;56582;44.624;20.378;2023-09-30T01:16:09;14.68;;;7.55;;
69392;SDS011;56582;44.624;20.378;2023-09-30T01:18:35;12.82;;;7.70;;
69392;SDS011;56582;44.624;20.378;2023-09-30T01:21:05;12.45;;;6.82;;
69392;SDS011;56582;44.624;20.378;2023-09-30T01:23:32;14.70;;;7.95;;
69392;SDS011;56582;44.624;20.378;2023-09-30T01:26:04;18.57;;;8.63;;
69392;SDS011;56582;44.624;20.378;2023-09-30T01:28:31;15.23;;;7.65;;
69392;SDS011;56582;44.624;20.378;2023-09-30T01:30:57;17.48;;;8.13;;
69392;SDS011;56582;44.624;20.378;2023-09-30T01:33:23;11.70;;;8.27;;
69392;SDS011;56582;44.624;20.378;2023-09-30T01:35:49;18.00;;;7.60;;
69392;SDS011;56582;44.624;20.378;2023-09-30T01:38:14;26.10;;;7.53;;
69392;SDS011;56582;44.624;20.378;2023-09-30T01:40:40;21.87;;;8.00;;
69392;SDS011;56582;44.624;20.378;2023-09-30T01:43:05;15.77;;;7.85;;
69392;SDS011;56582;44.624;20.378;2023-09-30T01:45:31;17.20;;;7.97;;
69392;SDS011;56582;44.624;20.378;2023-09-30T01:47:56;15.00;;;8.15;;
69392;SDS011;56582;44.624;20.378;2023-09-30T01:50:22;17.53;;;8.53;;
69392;SDS011;56582;44.624;20.378;2023-09-30T01:52:47;13.43;;;7.80;;
69392;SDS011;56582;44.624;20.378;2023-09-30T01:55:13;16.90;;;8.15;;
69392;SDS011;56582;44.624;20.378;2023-09-30T01:57:38;13.80;;;7.90;;
69392;SDS011;56582;44.624;20.378;2023-09-30T02:00:04;15.23;;;7.53;;
69392;SDS011;56582;44.624;20.378;2023-09-30T02:02:30;14.07;;;7.93;;
69392;SDS011;56582;44.624;20.378;2023-09-30T02:04:56;13.43;;;7.57;;
69392;SDS011;56582;44.624;20.378;2023-09-30T02:07:22;10.47;;;6.90;;
69392;SDS011;56582;44.624;20.378;2023-09-30T02:09:47;13.90;;;7.32;;
69392;SDS011;56582;44.624;20.378;2023-09-30T02:12:14;11.57;;;6.78;;
69392;SDS011;56582;44.624;20.378;2023-09-30T02:14:39;12.63;;;6.60;;
69392;SDS011;56582;44.624;20.378;2023-09-30T02:17:05;14.52;;;7.75;;
69392;SDS011;56582;44.624;20.378;2023-09-30T02:19:30;14.83;;;7.13;;
69392;SDS011;56582;44.624;20.378;2023-09-30T02:21:59;15.70;;;7.60;;
69392;SDS011;56582;44.624;20.378;2023-09-30T02:24:25;13.43;;;7.38;;
69392;SDS011;56582;44.624;20.378;2023-09-30T02:26:50;12.33;;;6.40;;
69392;SDS011;56582;44.624;20.378;2023-09-30T02:29:15;15.27;;;7.93;;
69392;SDS011;56582;44.624;20.378;2023-09-30T02:31:41;13.63;;;6.20;;
69392;SDS011;56582;44.624;20.378;2023-09-30T02:34:06;13.77;;;7.38;;
69392;SDS011;56582;44.624;20.378;2023-09-30T02:36:33;15.82;;;6.82;;
69392;SDS011;56582;44.624;20.378;2023-09-30T02:39:03;12.50;;;7.27;;
69392;SDS011;56582;44.624;20.378;2023-09-30T02:41:28;14.93;;;7.53;;
69392;SDS011;56582;44.624;20.378;2023-09-30T02:43:54;14.43;;;7.90;;
69392;SDS011;56582;44.624;20.378;2023-09-30T02:46:19;12.37;;;7.67;;
69392;SDS011;56582;44.624;20.378;2023-09-30T02:48:45;14.67;;;7.63;;
69392;SDS011;56582;44.624;20.378;2023-09-30T02:51:10;15.23;;;6.53;;
69392;SDS011;56582;44.624;20.378;2023-09-30T02:53:37;13.52;;;7.57;;
69392;SDS011;56582;44.624;20.378;2023-09-30T02:56:03;13.33;;;6.93;;
69392;SDS011;56582;44.624;20.378;2023-09-30T02:58:29;11.63;;;7.73;;
69392;SDS011;56582;44.624;20.378;2023-09-30T03:00:55;14.40;;;8.35;;
69392;SDS011;56582;44.624;20.378;2023-09-30T03:03:21;13.83;;;7.50;;
69392;SDS011;56582;44.624;20.378;2023-09-30T03:05:47;14.98;;;7.72;;
69392;SDS011;56582;44.624;20.378;2023-09-30T03:08:14;22.00;;;7.55;;
69392;SDS011;56582;44.624;20.378;2023-09-30T03:10:39;12.65;;;7.78;;
69392;SDS011;56582;44.624;20.378;2023-09-30T03:13:06;14.00;;;7.30;;
69392;SDS011;56582;44.624;20.378;2023-09-30T03:15:34;13.30;;;7.90;;
69392;SDS011;56582;44.624;20.378;2023-09-30T03:18:00;16.67;;;8.18;;
69392;SDS011;56582;44.624;20.378;2023-09-30T03:20:26;20.07;;;9.33;;
69392;SDS011;56582;44.624;20.378;2023-09-30T03:22:52;17.53;;;8.20;;
69392;SDS011;56582;44.624;20.378;2023-09-30T03:25:19;14.90;;;8.30;;
69392;SDS011;56582;44.624;20.378;2023-09-30T03:27:45;13.15;;;7.53;;
69392;SDS011;56582;44.624;20.378;2023-09-30T03:30:12;12.27;;;7.72;;
69392;SDS011;56582;44.624;20.378;2023-09-30T03:32:41;14.48;;;7.85;;
69392;SDS011;56582;44.624;20.378;2023-09-30T03:35:08;15.57;;;8.43;;
69392;SDS011;56582;44.624;20.378;2023-09-30T03:37:38;15.52;;;9.07;;
69392;SDS011;56582;44.624;20.378;2023-09-30T03:40:04;13.45;;;7.45;;
69392;SDS011;56582;44.624;20.378;2023-09-30T03:42:38;17.63;;;7.82;;
69392;SDS011;56582;44.624;20.378;2023-09-30T03:45:05;17.48;;;7.25;;
69392;SDS011;56582;44.624;20.378;2023-09-30T03:47:34;26.17;;;9.10;;
69392;SDS011;56582;44.624;20.378;2023-09-30T03:50:01;27.13;;;8.63;;
69392;SDS011;56582;44.624;20.378;2023-09-30T03:52:29;16.30;;;7.55;;
69392;SDS011;56582;44.624;20.378;2023-09-30T03:55:01;14.77;;;8.38;;
69392;SDS011;56582;44.624;20.378;2023-09-30T03:57:31;21.35;;;8.15;;
69392;SDS011;56582;44.624;20.378;2023-09-30T03:59:58;10.80;;;7.80;;
69392;SDS011;56582;44.624;20.378;2023-09-30T04:02:24;12.98;;;8.20;;
69392;SDS011;56582;44.624;20.378;2023-09-30T04:04:50;15.83;;;8.47;;
69392;SDS011;56582;44.624;20.378;2023-09-30T04:07:18;13.70;;;8.75;;
69392;SDS011;56582;44.624;20.378;2023-09-30T04:09:43;11.97;;;9.10;;
69392;SDS011;56582;44.624;20.378;2023-09-30T04:12:09;15.43;;;8.13;;
69392;SDS011;56582;44.624;20.378;2023-09-30T04:14:34;12.20;;;7.73;;
69392;SDS011;56582;44.624;20.378;2023-09-30T04:17:00;16.20;;;9.53;;
69392;SDS011;56582;44.624;20.378;2023-09-30T04:19:25;15.27;;;8.20;;
69392;SDS011;56582;44.624;20.378;2023-09-30T04:21:51;13.32;;;8.80;;
69392;SDS011;56582;44.624;20.378;2023-09-30T04:24:16;14.37;;;8.13;;
69392;SDS011;56582;44.624;20.378;2023-09-30T04:26:44;14.88;;;8.30;;
69392;SDS011;56582;44.624;20.378;2023-09-30T04:29:09;13.93;;;8.00;;
69392;SDS011;56582;44.624;20.378;2023-09-30T04:31:36;14.30;;;8.13;;
69392;SDS011;56582;44.624;20.378;2023-09-30T04:34:04;15.02;;;8.23;;
69392;SDS011;56582;44.624;20.378;2023-09-30T04:36:30;18.67;;;8.43;;
69392;SDS011;56582;44.624;20.378;2023-09-30T04:38:55;13.98;;;8.68;;
69392;SDS011;56582;44.624;20.378;2023-09-30T04:41:21;14.07;;;8.82;;
69392;SDS011;56582;44.624;20.378;2023-09-30T04:43:46;15.13;;;8.20;;
69392;SDS011;56582;44.624;20.378;2023-09-30T04:46:13;17.63;;;8.07;;
69392;SDS011;56582;44.624;20.378;2023-09-30T04:48:38;15.50;;;8.13;;
69392;SDS011;56582;44.624;20.378;2023-09-30T04:51:08;12.02;;;8.15;;
69392;SDS011;56582;44.624;20.378;2023-09-30T04:53:34;15.32;;;9.40;;
69392;SDS011;56582;44.624;20.378;2023-09-30T04:55:59;17.43;;;9.20;;
69392;SDS011;56582;44.624;20.378;2023-09-30T04:58:26;19.02;;;9.20;;
69392;SDS011;56582;44.624;20.378;2023-09-30T05:00:52;16.13;;;9.27;;
69392;SDS011;56582;44.624;20.378;2023-09-30T05:03:17;19.57;;;9.97;;
69392;SDS011;56582;44.624;20.378;2023-09-30T05:05:44;14.35;;;9.32;;
69392;SDS011;56582;44.624;20.378;2023-09-30T05:08:09;18.07;;;9.10;;
69392;SDS011;56582;44.624;20.378;2023-09-30T05:10:36;13.57;;;8.73;;
69392;SDS011;56582;44.624;20.378;2023-09-30T05:13:02;17.30;;;9.00;;
69392;SDS011;56582;44.624;20.378;2023-09-30T05:15:28;13.50;;;8.32;;
69392;SDS011;56582;44.624;20.378;2023-09-30T05:17:57;14.95;;;9.73;;
69392;SDS011;56582;44.624;20.378;2023-09-30T05:20:22;16.87;;;9.00;;
69392;SDS011;56582;44.624;20.378;2023-09-30T05:22:47;17.53;;;10.53;;
69392;SDS011;56582;44.624;20.378;2023-09-30T05:25:13;21.10;;;7.87;;
69392;SDS011;56582;44.624;20.378;2023-09-30T05:27:45;16.23;;;9.30;;
69392;SDS011;56582;44.624;20.378;2023-09-30T05:30:13;18.60;;;9.73;;
69392;SDS011;56582;44.624;20.378;2023-09-30T05:32:40;15.05;;;9.52;;
69392;SDS011;56582;44.624;20.378;2023-09-30T05:35:06;16.00;;;9.47;;
69392;SDS011;56582;44.624;20.378;2023-09-30T05:37:38;20.40;;;9.73;;
69392;SDS011;56582;44.624;20.378;2023-09-30T05:40:12;15.60;;;9.60;;
69392;SDS011;56582;44.624;20.378;2023-09-30T05:42:47;14.13;;;8.85;;
69392;SDS011;56582;44.624;20.378;2023-09-30T05:45:15;15.52;;;9.40;;
69392;SDS011;56582;44.624;20.378;2023-09-30T05:47:40;16.20;;;8.63;;
69392;SDS011;56582;44.624;20.378;2023-09-30T05:50:06;16.43;;;9.10;;
69392;SDS011;56582;44.624;20.378;2023-09-30T05:52:33;17.13;;;10.17;;
69392;SDS011;56582;44.624;20.378;2023-09-30T05:54:59;16.65;;;8.63;;
69392;SDS011;56582;44.624;20.378;2023-09-30T05:57:26;15.97;;;8.70;;
69392;SDS011;56582;44.624;20.378;2023-09-30T05:59:52;15.57;;;9.50;;
69392;SDS011;56582;44.624;20.378;2023-09-30T06:02:17;16.70;;;9.00;;
69392;SDS011;56582;44.624;20.378;2023-09-30T06:04:43;18.52;;;8.75;;
69392;SDS011;56582;44.624;20.378;2023-09-30T06:07:08;15.13;;;9.53;;
69392;SDS011;56582;44.624;20.378;2023-09-30T06:09:35;15.55;;;8.65;;
69392;SDS011;56582;44.624;20.378;2023-09-30T06:12:00;16.03;;;9.00;;
69392;SDS011;56582;44.624;20.378;2023-09-30T06:14:28;13.40;;;8.20;;
69392;SDS011;56582;44.624;20.378;2023-09-30T06:16:56;11.80;;;8.75;;
69392;SDS011;56582;44.624;20.378;2023-09-30T06:19:22;17.37;;;10.13;;
69392;SDS011;56582;44.624;20.378;2023-09-30T06:21:47;17.80;;;9.10;;
69392;SDS011;56582;44.624;20.378;2023-09-30T06:24:13;17.33;;;9.50;;
69392;SDS011;56582;44.624;20.378;2023-09-30T06:26:38;14.63;;;9.70;;
69392;SDS011;56582;44.624;20.378;2023-09-30T06:29:04;15.23;;;9.93;;
69392;SDS011;56582;44.624;20.378;2023-09-30T06:31:31;19.10;;;10.67;;
69392;SDS011;56582;44.624;20.378;2023-09-30T06:33:57;14.73;;;9.88;;
69392;SDS011;56582;44.624;20.378;2023-09-30T06:36:23;20.38;;;10.07;;
69392;SDS011;56582;44.624;20.378;2023-09-30T06:38:49;14.93;;;9.80;;
69392;SDS011;56582;44.624;20.378;2023-09-30T06:41:16;16.42;;;10.85;;
69392;SDS011;56582;44.624;20.378;2023-09-30T06:43:42;17.40;;;10.88;;
69392;SDS011;56582;44.624;20.378;2023-09-30T06:46:08;19.60;;;10.30;;
69392;SDS011;56582;44.624;20.378;2023-09-30T06:48:38;17.48;;;9.95;;
69392;SDS011;56582;44.624;20.378;2023-09-30T06:51:05;16.60;;;10.07;;
69392;SDS011;56582;44.624;20.378;2023-09-30T06:53:31;17.92;;;10.00;;
69392;SDS011;56582;44.624;20.378;2023-09-30T06:55:57;15.40;;;10.23;;
69392;SDS011;56582;44.624;20.378;2023-09-30T06:58:22;17.43;;;10.10;;
69392;SDS011;56582;44.624;20.378;2023-09-30T07:00:51;15.87;;;11.27;;
69392;SDS011;56582;44.624;20.378;2023-09-30T07:03:18;17.67;;;10.70;;
69392;SDS011;56582;44.624;20.378;2023-09-30T07:05:47;15.93;;;10.18;;
69392;SDS011;56582;44.624;20.378;2023-09-30T07:08:17;17.60;;;9.63;;
69392;SDS011;56582;44.624;20.378;2023-09-30T07:10:43;17.75;;;9.82;;
69392;SDS011;56582;44.624;20.378;2023-09-30T07:13:11;17.67;;;9.57;;
69392;SDS011;56582;44.624;20.378;2023-09-30T07:15:36;19.30;;;10.13;;
69392;SDS011;56582;44.624;20.378;2023-09-30T07:18:02;17.43;;;9.43;;
69392;SDS011;56582;44.624;20.378;2023-09-30T07:20:28;16.90;;;9.07;;
69392;SDS011;56582;44.624;20.378;2023-09-30T07:22:57;15.13;;;9.27;;
69392;SDS011;56582;44.624;20.378;2023-09-30T07:25:23;13.02;;;9.18;;
69392;SDS011;56582;44.624;20.378;2023-09-30T07:27:49;18.17;;;10.20;;
69392;SDS011;56582;44.624;20.378;2023-09-30T07:30:16;13.48;;;9.00;;
69392;SDS011;56582;44.624;20.378;2023-09-30T07:32:42;28.20;;;13.30;;
69392;SDS011;56582;44.624;20.378;2023-09-30T07:35:09;14.95;;;9.13;;
69392;SDS011;56582;44.624;20.378;2023-09-30T07:37:35;16.88;;;9.45;;
69392;SDS011;56582;44.624;20.378;2023-09-30T07:40:00;17.23;;;8.53;;
69392;SDS011;56582;44.624;20.378;2023-09-30T07:42:26;14.05;;;9.05;;
69392;SDS011;56582;44.624;20.378;2023-09-30T07:44:51;15.47;;;9.17;;
69392;SDS011;56582;44.624;20.378;2023-09-30T07:47:16;16.47;;;9.73;;
69392;SDS011;56582;44.624;20.378;2023-09-30T07:49:42;14.68;;;9.55;;
69392;SDS011;56582;44.624;20.378;2023-09-30T07:52:08;15.67;;;9.20;;
69392;SDS011;56582;44.624;20.378;2023-09-30T07:54:34;18.20;;;9.10;;
69392;SDS011;56582;44.624;20.378;2023-09-30T07:56:59;15.33;;;9.00;;
69392;SDS011;56582;44.624;20.378;2023-09-30T07:59:25;16.47;;;9.87;;
69392;SDS011;56582;44.624;20.378;2023-09-30T08:01:50;18.30;;;10.20;;
69392;SDS011;56582;44.624;20.378;2023-09-30T08:04:17;16.02;;;9.95;;
69392;SDS011;56582;44.624;20.378;2023-09-30T08:06:43;16.65;;;10.25;;
69392;SDS011;56582;44.624;20.378;2023-09-30T08:09:09;16.50;;;9.93;;
69392;SDS011;56582;44.624;20.378;2023-09-30T08:11:38;16.60;;;9.40;;
69392;SDS011;56582;44.624;20.378;2023-09-30T08:14:03;17.30;;;9.63;;
69392;SDS011;56582;44.624;20.378;2023-09-30T08:16:35;13.03;;;9.70;;
69392;SDS011;56582;44.624;20.378;2023-09-30T08:19:02;18.48;;;10.35;;
69392;SDS011;56582;44.624;20.378;2023-09-30T08:21:28;14.90;;;9.30;;
69392;SDS011;56582;44.624;20.378;2023-09-30T08:23:53;15.73;;;10.50;;
69392;SDS011;56582;44.624;20.378;2023-09-30T08:26:19;17.48;;;9.38;;
69392;SDS011;56582;44.624;20.378;2023-09-30T08:28:44;16.93;;;9.40;;
69392;SDS011;56582;44.624;20.378;2023-09-30T08:31:10;20.57;;;10.17;;
69392;SDS011;56582;44.624;20.378;2023-09-30T08:33:35;17.97;;;10.07;;
69392;SDS011;56582;44.624;20.378;2023-09-30T08:36:01;16.92;;;10.85;;
69392;SDS011;56582;44.624;20.378;2023-09-30T08:38:33;17.90;;;9.75;;
69392;SDS011;56582;44.624;20.378;2023-09-30T08:41:02;17.47;;;9.00;;
69392;SDS011;56582;44.624;20.378;2023-09-30T08:43:28;16.38;;;9.43;;
69392;SDS011;56582;44.624;20.378;2023-09-30T08:45:56;17.80;;;9.80;;
69392;SDS011;56582;44.624;20.378;2023-09-30T08:48:23;14.93;;;9.55;;
69392;SDS011;56582;44.624;20.378;2023-09-30T08:50:51;17.83;;;12.05;;
69392;SDS011;56582;44.624;20.378;2023-09-30T08:53:18;15.20;;;9.60;;
69392;SDS011;56582;44.624;20.378;2023-09-30T08:55:44;24.10;;;10.63;;
69392;SDS011;56582;44.624;20.378;2023-09-30T08:58:14;12.77;;;10.05;;
69392;SDS011;56582;44.624;20.378;2023-09-30T09:00:40;18.05;;;11.52;;
69392;SDS011;56582;44.624;20.378;2023-09-30T09:03:07;13.40;;;9.23;;
69392;SDS011;56582;44.624;20.378;2023-09-30T09:05:33;16.65;;;10.48;;
69392;SDS011;56582;44.624;20.378;2023-09-30T09:07:58;17.50;;;10.65;;
69392;SDS011;56582;44.624;20.378;2023-09-30T09:10:27;21.03;;;11.23;;
69392;SDS011;56582;44.624;20.378;2023-09-30T09:12:56;19.13;;;10.23;;
69392;SDS011;56582;44.624;20.378;2023-09-30T09:15:28;15.47;;;9.43;;
69392;SDS011;56582;44.624;20.378;2023-09-30T09:17:54;14.27;;;8.82;;
69392;SDS011;56582;44.624;20.378;2023-09-30T09:20:21;16.23;;;9.00;;
69392;SDS011;56582;44.624;20.378;2023-09-30T09:22:54;15.93;;;9.10;;
69392;SDS011;56582;44.624;20.378;2023-09-30T09:25:21;23.35;;;12.60;;
69392;SDS011;56582;44.624;20.378;2023-09-30T09:27:48;15.57;;;9.00;;
69392;SDS011;56582;44.624;20.378;2023-09-30T09:30:22;14.95;;;8.70;;
69392;SDS011;56582;44.624;20.378;2023-09-30T09:35:22;18.65;;;8.63;;
69392;SDS011;56582;44.624;20.378;2023-09-30T09:37:57;11.57;;;7.68;;
69392;SDS011;56582;44.624;20.378;2023-09-30T09:40:24;100.13;;;19.70;;
69392;SDS011;56582;44.624;20.378;2023-09-30T09:42:51;28.00;;;11.45;;
69392;SDS011;56582;44.624;20.378;2023-09-30T09:45:20;14.15;;;8.55;;
69392;SDS011;56582;44.624;20.378;2023-09-30T09:47:51;34.30;;;11.00;;
69392;SDS011;56582;44.624;20.378;2023-09-30T09:50:18;15.27;;;8.63;;
69392;SDS011;56582;44.624;20.378;2023-09-30T09:52:50;16.20;;;8.37;;
69392;SDS011;56582;44.624;20.378;2023-09-30T09:55:18;12.27;;;8.30;;
69392;SDS011;56582;44.624;20.378;2023-09-30T09:57:45;20.70;;;10.23;;
69392;SDS011;56582;44.624;20.378;2023-09-30T10:02:44;13.00;;;8.32;;
69392;SDS011;56582;44.624;20.378;2023-09-30T10:05:14;17.67;;;9.27;;
69392;SDS011;56582;44.624;20.378;2023-09-30T10:10:19;15.27;;;9.25;;
69392;SDS011;56582;44.624;20.378;2023-09-30T10:12:46;13.90;;;9.02;;
69392;SDS011;56582;44.624;20.378;2023-09-30T10:20:40;16.27;;;9.75;;
69392;SDS011;56582;44.624;20.378;2023-09-30T10:25:53;13.43;;;9.00;;
69392;SDS011;56582;44.624;20.378;2023-09-30T10:28:32;12.35;;;8.25;;
69392;SDS011;56582;44.624;20.378;2023-09-30T10:34:20;13.13;;;7.97;;
69392;SDS011;56582;44.624;20.378;2023-09-30T10:36:46;12.10;;;8.32;;
69392;SDS011;56582;44.624;20.378;2023-09-30T10:39:12;12.82;;;8.45;;
69392;SDS011;56582;44.624;20.378;2023-09-30T10:46:47;13.35;;;8.48;;
69392;SDS011;56582;44.624;20.378;2023-09-30T10:51:51;13.75;;;8.48;;
69392;SDS011;56582;44.624;20.378;2023-09-30T10:54:24;14.10;;;8.55;;
69392;SDS011;56582;44.624;20.378;2023-09-30T10:56:52;15.80;;;8.67;;
69392;SDS011;56582;44.624;20.378;2023-09-30T10:59:24;15.82;;;8.25;;
69392;SDS011;56582;44.624;20.378;2023-09-30T11:01:51;12.90;;;8.35;;
69392;SDS011;56582;44.624;20.378;2023-09-30T11:04:20;12.80;;;8.30;;
69392;SDS011;56582;44.624;20.378;2023-09-30T11:06:47;14.07;;;8.85;;
69392;SDS011;56582;44.624;20.378;2023-09-30T11:09:20;13.00;;;8.57;;
69392;SDS011;56582;44.624;20.378;2023-09-30T11:11:47;14.93;;;8.48;;
69392;SDS011;56582;44.624;20.378;2023-09-30T11:16:49;16.00;;;7.53;;
69392;SDS011;56582;44.624;20.378;2023-09-30T11:19:16;10.95;;;7.45;;
69392;SDS011;56582;44.624;20.378;2023-09-30T11:21:42;14.70;;;7.73;;
69392;SDS011;56582;44.624;20.378;2023-09-30T11:24:11;14.00;;;7.90;;
69392;SDS011;56582;44.624;20.378;2023-09-30T11:26:37;11.25;;;8.10;;
69392;SDS011;56582;44.624;20.378;2023-09-30T11:29:06;14.83;;;8.53;;
69392;SDS011;56582;44.624;20.378;2023-09-30T11:31:33;16.92;;;8.82;;
69392;SDS011;56582;44.624;20.378;2023-09-30T11:33:58;14.55;;;7.40;;
69392;SDS011;56582;44.624;20.378;2023-09-30T11:36:28;11.80;;;7.47;;
69392;SDS011;56582;44.624;20.378;2023-09-30T11:38:55;10.63;;;7.53;;
69392;SDS011;56582;44.624;20.378;2023-09-30T11:41:21;13.25;;;7.80;;
69392;SDS011;56582;44.624;20.378;2023-09-30T11:44:06;11.20;;;7.43;;
69392;SDS011;56582;44.624;20.378;2023-09-30T11:49:52;16.13;;;7.72;;
69392;SDS011;56582;44.624;20.378;2023-09-30T11:52:25;11.55;;;7.05;;
69392;SDS011;56582;44.624;20.378;2023-09-30T11:54:51;10.82;;;6.70;;
69392;SDS011;56582;44.624;20.378;2023-09-30T11:57:17;11.93;;;7.50;;
69392;SDS011;56582;44.624;20.378;2023-09-30T11:59:44;16.30;;;7.20;;
69392;SDS011;56582;44.624;20.378;2023-09-30T12:02:11;10.87;;;6.73;;
69392;SDS011;56582;44.624;20.378;2023-09-30T12:04:37;13.13;;;6.97;;
69392;SDS011;56582;44.624;20.378;2023-09-30T12:07:03;12.52;;;6.28;;
69392;SDS011;56582;44.624;20.378;2023-09-30T12:09:29;9.73;;;6.43;;
69392;SDS011;56582;44.624;20.378;2023-09-30T12:11:56;11.00;;;6.78;;
69392;SDS011;56582;44.624;20.378;2023-09-30T12:14:23;13.10;;;6.95;;
69392;SDS011;56582;44.624;20.378;2023-09-30T12:16:49;10.70;;;5.80;;
69392;SDS011;56582;44.624;20.378;2023-09-30T12:19:16;8.93;;;5.93;;
69392;SDS011;56582;44.624;20.378;2023-09-30T12:21:43;10.07;;;7.03;;
69392;SDS011;56582;44.624;20.378;2023-09-30T12:24:12;11.70;;;6.65;;
69392;SDS011;56582;44.624;20.378;2023-09-30T12:26:41;13.00;;;7.45;;
69392;SDS011;56582;44.624;20.378;2023-09-30T12:29:15;13.18;;;7.35;;
69392;SDS011;56582;44.624;20.378;2023-09-30T12:31:43;11.23;;;7.13;;
69392;SDS011;56582;44.624;20.378;2023-09-30T12:34:12;9.60;;;6.73;;
69392;SDS011;56582;44.624;20.378;2023-09-30T12:36:39;12.90;;;6.88;;
69392;SDS011;56582;44.624;20.378;2023-09-30T12:39:05;11.57;;;7.47;;
69392;SDS011;56582;44.624;20.378;2023-09-30T12:41:40;11.80;;;6.63;;
69392;SDS011;56582;44.624;20.378;2023-09-30T12:44:07;9.77;;;6.45;;
69392;SDS011;56582;44.624;20.378;2023-09-30T12:46:33;9.50;;;5.83;;
69392;SDS011;56582;44.624;20.378;2023-09-30T12:49:01;12.07;;;6.63;;
69392;SDS011;56582;44.624;20.378;2023-09-30T12:51:30;10.18;;;6.60;;
69392;SDS011;56582;44.624;20.378;2023-09-30T12:53:56;11.40;;;6.30;;
69392;SDS011;56582;44.624;20.378;2023-09-30T12:56:23;11.00;;;6.97;;
69392;SDS011;56582;44.624;20.378;2023-09-30T12:58:49;14.30;;;6.60;;
69392;SDS011;56582;44.624;20.378;2023-09-30T13:01:14;13.75;;;7.88;;
69392;SDS011;56582;44.624;20.378;2023-09-30T13:03:41;10.43;;;6.70;;
69392;SDS011;56582;44.624;20.378;2023-09-30T13:06:06;16.73;;;8.18;;
69392;SDS011;56582;44.624;20.378;2023-09-30T13:08:32;11.77;;;7.20;;
69392;SDS011;56582;44.624;20.378;2023-09-30T13:11:01;12.25;;;6.53;;
69392;SDS011;56582;44.624;20.378;2023-09-30T13:13:28;10.20;;;6.70;;
69392;SDS011;56582;44.624;20.378;2023-09-30T13:15:56;9.80;;;6.60;;
69392;SDS011;56582;44.624;20.378;2023-09-30T13:18:22;14.70;;;6.50;;
69392;SDS011;56582;44.624;20.378;2023-09-30T13:20:48;11.20;;;7.00;;
69392;SDS011;56582;44.624;20.378;2023-09-30T13:23:13;9.93;;;6.20;;
69392;SDS011;56582;44.624;20.378;2023-09-30T13:25:39;10.53;;;6.73;;
69392;SDS011;56582;44.624;20.378;2023-09-30T13:28:04;18.50;;;6.97;;
69392;SDS011;56582;44.624;20.378;2023-09-30T13:30:30;15.00;;;7.85;;
69392;SDS011;56582;44.624;20.378;2023-09-30T13:32:57;14.60;;;6.97;;
69392;SDS011;56582;44.624;20.378;2023-09-30T13:35:22;12.13;;;7.40;;
69392;SDS011;56582;44.624;20.378;2023-09-30T13:37:48;13.57;;;7.30;;
69392;SDS011;56582;44.624;20.378;2023-09-30T13:40:13;12.80;;;7.53;;
69392;SDS011;56582;44.624;20.378;2023-09-30T13:42:39;10.85;;;7.53;;
69392;SDS011;56582;44.624;20.378;2023-09-30T13:45:05;10.67;;;7.87;;
69392;SDS011;56582;44.624;20.378;2023-09-30T13:47:31;11.68;;;7.55;;
69392;SDS011;56582;44.624;20.378;2023-09-30T13:49:58;15.05;;;7.63;;
69392;SDS011;56582;44.624;20.378;2023-09-30T13:52:23;14.37;;;8.10;;
69392;SDS011;56582;44.624;20.378;2023-09-30T13:54:48;18.55;;;7.18;;
69392;SDS011;56582;44.624;20.378;2023-09-30T13:57:14;13.70;;;6.97;;
69392;SDS011;56582;44.624;20.378;2023-09-30T13:59:40;14.53;;;6.20;;
69392;SDS011;56582;44.624;20.378;2023-09-30T14:02:07;10.82;;;6.00;;
69392;SDS011;56582;44.624;20.378;2023-09-30T14:04:32;9.97;;;6.03;;
69392;SDS011;56582;44.624;20.378;2023-09-30T14:07:00;13.55;;;6.53;;
69392;SDS011;56582;44.624;20.378;2023-09-30T14:09:27;15.80;;;7.32;;
69392;SDS011;56582;44.624;20.378;2023-09-30T14:11:53;12.13;;;5.72;;
69392;SDS011;56582;44.624;20.378;2023-09-30T14:14:24;9.38;;;5.68;;
69392;SDS011;56582;44.624;20.378;2023-09-30T14:16:49;13.03;;;6.33;;
69392;SDS011;56582;44.624;20.378;2023-09-30T14:19:15;10.98;;;6.13;;
69392;SDS011;56582;44.624;20.378;2023-09-30T14:21:41;11.27;;;7.07;;
69392;SDS011;56582;44.624;20.378;2023-09-30T14:24:06;11.70;;;6.60;;
69392;SDS011;56582;44.624;20.378;2023-09-30T14:26:32;9.17;;;6.73;;
69392;SDS011;56582;44.624;20.378;2023-09-30T14:28:58;10.63;;;5.70;;
69392;SDS011;56582;44.624;20.378;2023-09-30T14:31:24;13.50;;;6.50;;
69392;SDS011;56582;44.624;20.378;2023-09-30T14:33:49;9.95;;;6.68;;
69392;SDS011;56582;44.624;20.378;2023-09-30T14:36:16;9.35;;;6.50;;
69392;SDS011;56582;44.624;20.378;2023-09-30T14:38:43;9.52;;;6.55;;
69392;SDS011;56582;44.624;20.378;2023-09-30T14:41:12;8.75;;;5.65;;
69392;SDS011;56582;44.624;20.378;2023-09-30T14:43:40;11.93;;;6.13;;
69392;SDS011;56582;44.624;20.378;2023-09-30T14:46:06;11.85;;;6.53;;
69392;SDS011;56582;44.624;20.378;2023-09-30T14:48:31;19.33;;;6.17;;
69392;SDS011;56582;44.624;20.378;2023-09-30T14:50:57;16.15;;;6.78;;